Toyo Eagle — H3LY — position and weather

sailwx.info

Track history (hours):
 
Tides and Currents Weather Stations Pressure Air Temp Water Temp Dewpoint Dewpoint Depression Visibility Wind Speed Wind Dir Waves Ship Positions

Toyo Eagle

Last reported at 2015-Aug-03 12:33 UTC. Time now 2015-Aug-04 17:57 UTC.
Position N 03°09' E 100°42'.

Length 108 m; draft 5.3 m.

Type: Ship. MMSI: 355327000.

Date/timePositionNaut miles runAvg speedWind from/ knotsBaromVisibWave heightAir tempDewpointWater temp
2015-Aug-03 12:33N 03°09' E 100°42'2311.5
2015-Aug-03 10:33N 02°53' E 100°58'18 9.3
2015-Aug-03 08:33N 02°55' E 101°17'2 1.2
2015-Aug-03 06:32N 02°57' E 101°18'0 0.0
2015-Aug-03 05:32N 02°57' E 101°18'0 0.0
2015-Aug-03 04:32N 02°57' E 101°18'0 0.0
2015-Aug-03 02:32N 02°57' E 101°18'0 0.0
2015-Aug-03 00:32N 02°57' E 101°18'0 0.0
2015-Aug-02 22:14N 02°57' E 101°18'0 0.0
2015-Aug-02 21:32N 02°57' E 101°18'0 0.0
2015-Aug-02 18:26N 02°57' E 101°18'0 0.0
2015-Aug-02 15:32N 02°57' E 101°18'0 0.0
2015-Aug-02 13:14N 02°57' E 101°18'0 0.0
2015-Aug-02 11:32N 02°57' E 101°18'0 0.0
2015-Aug-02 10:29N 02°57' E 101°18'0 0.0
2015-Aug-02 08:32N 02°57' E 101°18'0 0.0
2015-Aug-02 06:29N 02°57' E 101°18'0 0.0
2015-Aug-02 04:32N 02°57' E 101°18'0 0.0
2015-Aug-02 03:20N 02°57' E 101°18'0 0.0
2015-Aug-02 01:32N 02°57' E 101°18'0 0.0
2015-Aug-01 23:23N 02°57' E 101°18'0 0.0
2015-Aug-01 21:32N 02°57' E 101°18'0 0.0
2015-Aug-01 20:20N 02°57' E 101°18'0 0.0
2015-Aug-01 19:29N 02°57' E 101°18'0 0.0
2015-Aug-01 18:32N 02°57' E 101°18'0 0.0
2015-Aug-01 16:32N 02°57' E 101°18'0 0.0
2015-Aug-01 15:32N 02°57' E 101°18'0 0.0
2015-Aug-01 13:32N 02°57' E 101°18'0 0.0
2015-Aug-01 12:32N 02°57' E 101°18'0 0.0
2015-Aug-01 09:32N 02°57' E 101°18'0 0.0
2015-Aug-01 07:29N 02°57' E 101°18'0 0.0
2015-Aug-01 05:32N 02°57' E 101°18'0 0.0
2015-Aug-01 03:32N 02°57' E 101°18'0 0.0
2015-Aug-01 01:32N 02°57' E 101°18'0 0.0
2015-Aug-01 00:32N 02°57' E 101°18'0 0.0
2015-Jul-31 22:32N 02°57' E 101°18'0 0.0
2015-Jul-31 20:32N 02°57' E 101°18'0 0.0
2015-Jul-31 18:21N 02°57' E 101°18'9 5.1
2015-Jul-31 16:33N 02°48' E 101°16'2411.8
2015-Jul-31 14:33N 02°33' E 101°33'15511.8
2015-Jul-31 01:25N 01°08' E 103°44'7 8.5
2015-Jul-31 00:33N 01°14' E 103°48'1 0.8
2015-Jul-30 23:31N 01°15' E 103°48'0 0.0
2015-Jul-30 22:31N 01°15' E 103°48'0 0.0
2015-Jul-30 21:31N 01°15' E 103°48'0 0.1
2015-Jul-30 20:31N 01°15' E 103°48'0 0.0
2015-Jul-30 19:31N 01°15' E 103°48'0 0.1
2015-Jul-30 18:28N 01°15' E 103°48'0 0.1
2015-Jul-30 17:31N 01°15' E 103°48'0 0.1
2015-Jul-30 16:25N 01°15' E 103°48'0 0.1
2015-Jul-30 15:31N 01°15' E 103°48'0 0.4
2015-Jul-30 14:33N 01°15' E 103°48'6 0.9
2015-Jul-30 07:33N 01°18' E 103°43'5 5.4
2015-Jul-30 06:33N 01°14' E 103°47'9 8.7
2015-Jul-30 05:33N 01°14' E 103°56'10 8.9
2015-Jul-30 04:28N 01°16' E 104°05'  
Track history (hours):
 
Tides and Currents Weather Stations Pressure Air Temp Water Temp Dewpoint Dewpoint Depression Visibility Wind Speed Wind Dir Waves Ship Positions

Toyo Eagle

Last reported at 2015-Aug-03 12:33 UTC. Time now 2015-Aug-04 17:57 UTC.
Position N 03°09' E 100°42'.

Length 108 m; draft 5.3 m.

Type: Ship. MMSI: 355327000.

Date/timePositionNaut miles runAvg speedWind from/ knotsBaromVisibWave heightAir tempDewpointWater temp
2015-Aug-03 12:33N 03°09' E 100°42'2311.5
2015-Aug-03 10:33N 02°53' E 100°58'18 9.3
2015-Aug-03 08:33N 02°55' E 101°17'2 1.2
2015-Aug-03 06:32N 02°57' E 101°18'0 0.0
2015-Aug-03 05:32N 02°57' E 101°18'0 0.0
2015-Aug-03 04:32N 02°57' E 101°18'0 0.0
2015-Aug-03 02:32N 02°57' E 101°18'0 0.0
2015-Aug-03 00:32N 02°57' E 101°18'0 0.0
2015-Aug-02 22:14N 02°57' E 101°18'0 0.0
2015-Aug-02 21:32N 02°57' E 101°18'0 0.0
2015-Aug-02 18:26N 02°57' E 101°18'0 0.0
2015-Aug-02 15:32N 02°57' E 101°18'0 0.0
2015-Aug-02 13:14N 02°57' E 101°18'0 0.0
2015-Aug-02 11:32N 02°57' E 101°18'0 0.0
2015-Aug-02 10:29N 02°57' E 101°18'0 0.0
2015-Aug-02 08:32N 02°57' E 101°18'0 0.0
2015-Aug-02 06:29N 02°57' E 101°18'0 0.0
2015-Aug-02 04:32N 02°57' E 101°18'0 0.0
2015-Aug-02 03:20N 02°57' E 101°18'0 0.0
2015-Aug-02 01:32N 02°57' E 101°18'0 0.0
2015-Aug-01 23:23N 02°57' E 101°18'0 0.0
2015-Aug-01 21:32N 02°57' E 101°18'0 0.0
2015-Aug-01 20:20N 02°57' E 101°18'0 0.0
2015-Aug-01 19:29N 02°57' E 101°18'0 0.0
2015-Aug-01 18:32N 02°57' E 101°18'0 0.0
2015-Aug-01 16:32N 02°57' E 101°18'0 0.0
2015-Aug-01 15:32N 02°57' E 101°18'0 0.0
2015-Aug-01 13:32N 02°57' E 101°18'0 0.0
2015-Aug-01 12:32N 02°57' E 101°18'0 0.0
2015-Aug-01 09:32N 02°57' E 101°18'0 0.0
2015-Aug-01 07:29N 02°57' E 101°18'0 0.0
2015-Aug-01 05:32N 02°57' E 101°18'0 0.0
2015-Aug-01 03:32N 02°57' E 101°18'0 0.0
2015-Aug-01 01:32N 02°57' E 101°18'0 0.0
2015-Aug-01 00:32N 02°57' E 101°18'0 0.0
2015-Jul-31 22:32N 02°57' E 101°18'0 0.0
2015-Jul-31 20:32N 02°57' E 101°18'0 0.0
2015-Jul-31 18:21N 02°57' E 101°18'9 5.1
2015-Jul-31 16:33N 02°48' E 101°16'2411.8
2015-Jul-31 14:33N 02°33' E 101°33'15511.8
2015-Jul-31 01:25N 01°08' E 103°44'7 8.5
2015-Jul-31 00:33N 01°14' E 103°48'1 0.8
2015-Jul-30 23:31N 01°15' E 103°48'0 0.0
2015-Jul-30 22:31N 01°15' E 103°48'0 0.0
2015-Jul-30 21:31N 01°15' E 103°48'0 0.1
2015-Jul-30 20:31N 01°15' E 103°48'0 0.0
2015-Jul-30 19:31N 01°15' E 103°48'0 0.1
2015-Jul-30 18:28N 01°15' E 103°48'0 0.1
2015-Jul-30 17:31N 01°15' E 103°48'0 0.1
2015-Jul-30 16:25N 01°15' E 103°48'0 0.1
2015-Jul-30 15:31N 01°15' E 103°48'0 0.4
2015-Jul-30 14:33N 01°15' E 103°48'6 0.9
2015-Jul-30 07:33N 01°18' E 103°43'5 5.4
2015-Jul-30 06:33N 01°14' E 103°47'9 8.7
2015-Jul-30 05:33N 01°14' E 103°56'10 8.9
2015-Jul-30 04:28N 01°16' E 104°05'  

Dump ship's entire track history